sensor_id;sensor_type;location;lat;lon;timestamp;P1;durP1;ratioP1;P2;durP2;ratioP2
56667;SDS011;42542;48.360;10.958;2024-03-08T00:01:46;19.38;;;6.28;;
56667;SDS011;42542;48.360;10.958;2024-03-08T00:04:48;16.63;;;6.15;;
56667;SDS011;42542;48.360;10.958;2024-03-08T00:07:49;16.70;;;5.72;;
56667;SDS011;42542;48.360;10.958;2024-03-08T00:10:52;17.50;;;5.97;;
56667;SDS011;42542;48.360;10.958;2024-03-08T00:13:53;17.50;;;5.70;;
56667;SDS011;42542;48.360;10.958;2024-03-08T00:16:56;19.63;;;6.10;;
56667;SDS011;42542;48.360;10.958;2024-03-08T00:19:57;17.17;;;6.00;;
56667;SDS011;42542;48.360;10.958;2024-03-08T00:23:00;16.43;;;6.40;;
56667;SDS011;42542;48.360;10.958;2024-03-08T00:26:01;14.73;;;5.55;;
56667;SDS011;42542;48.360;10.958;2024-03-08T00:29:05;16.70;;;6.22;;
56667;SDS011;42542;48.360;10.958;2024-03-08T00:32:09;19.15;;;5.78;;
56667;SDS011;42542;48.360;10.958;2024-03-08T00:35:13;16.33;;;5.93;;
56667;SDS011;42542;48.360;10.958;2024-03-08T00:38:15;16.88;;;5.90;;
56667;SDS011;42542;48.360;10.958;2024-03-08T00:41:17;20.88;;;6.88;;
56667;SDS011;42542;48.360;10.958;2024-03-08T00:44:18;16.10;;;5.83;;
56667;SDS011;42542;48.360;10.958;2024-03-08T00:47:21;21.00;;;6.78;;
56667;SDS011;42542;48.360;10.958;2024-03-08T00:50:22;16.75;;;5.90;;
56667;SDS011;42542;48.360;10.958;2024-03-08T00:53:24;18.33;;;6.07;;
56667;SDS011;42542;48.360;10.958;2024-03-08T00:56:26;16.67;;;5.78;;
56667;SDS011;42542;48.360;10.958;2024-03-08T00:59:28;18.45;;;5.93;;
56667;SDS011;42542;48.360;10.958;2024-03-08T01:02:36;16.45;;;5.78;;
56667;SDS011;42542;48.360;10.958;2024-03-08T01:05:38;16.25;;;6.15;;
56667;SDS011;42542;48.360;10.958;2024-03-08T01:08:40;18.80;;;6.38;;
56667;SDS011;42542;48.360;10.958;2024-03-08T01:11:43;18.48;;;6.70;;
56667;SDS011;42542;48.360;10.958;2024-03-08T01:14:45;16.70;;;5.87;;
56667;SDS011;42542;48.360;10.958;2024-03-08T01:17:48;16.63;;;5.72;;
56667;SDS011;42542;48.360;10.958;2024-03-08T01:20:50;17.30;;;5.82;;
56667;SDS011;42542;48.360;10.958;2024-03-08T01:23:52;14.87;;;6.00;;
56667;SDS011;42542;48.360;10.958;2024-03-08T01:26:54;15.90;;;5.68;;
56667;SDS011;42542;48.360;10.958;2024-03-08T01:29:56;17.30;;;6.13;;
56667;SDS011;42542;48.360;10.958;2024-03-08T01:33:01;17.60;;;6.70;;
56667;SDS011;42542;48.360;10.958;2024-03-08T01:36:04;19.25;;;5.53;;
56667;SDS011;42542;48.360;10.958;2024-03-08T01:39:06;15.30;;;6.07;;
56667;SDS011;42542;48.360;10.958;2024-03-08T01:42:10;17.55;;;6.03;;
56667;SDS011;42542;48.360;10.958;2024-03-08T01:45:16;17.93;;;6.03;;
56667;SDS011;42542;48.360;10.958;2024-03-08T01:48:18;16.70;;;6.35;;
56667;SDS011;42542;48.360;10.958;2024-03-08T01:51:26;16.15;;;5.50;;
56667;SDS011;42542;48.360;10.958;2024-03-08T01:54:30;15.57;;;5.60;;
56667;SDS011;42542;48.360;10.958;2024-03-08T01:57:33;17.50;;;5.88;;
56667;SDS011;42542;48.360;10.958;2024-03-08T02:00:35;18.63;;;6.25;;
56667;SDS011;42542;48.360;10.958;2024-03-08T02:03:42;18.38;;;5.88;;
56667;SDS011;42542;48.360;10.958;2024-03-08T02:06:45;18.10;;;5.78;;
56667;SDS011;42542;48.360;10.958;2024-03-08T02:09:48;18.25;;;6.22;;
56667;SDS011;42542;48.360;10.958;2024-03-08T02:12:50;17.02;;;6.20;;
56667;SDS011;42542;48.360;10.958;2024-03-08T02:15:59;17.70;;;6.27;;
56667;SDS011;42542;48.360;10.958;2024-03-08T02:19:02;17.38;;;6.00;;
56667;SDS011;42542;48.360;10.958;2024-03-08T02:22:04;18.98;;;6.32;;
56667;SDS011;42542;48.360;10.958;2024-03-08T02:25:08;15.50;;;6.07;;
56667;SDS011;42542;48.360;10.958;2024-03-08T02:28:10;19.95;;;6.13;;
56667;SDS011;42542;48.360;10.958;2024-03-08T02:31:13;16.67;;;5.80;;
56667;SDS011;42542;48.360;10.958;2024-03-08T02:34:14;19.50;;;6.40;;
56667;SDS011;42542;48.360;10.958;2024-03-08T02:37:16;19.73;;;6.60;;
56667;SDS011;42542;48.360;10.958;2024-03-08T02:40:19;17.88;;;6.53;;
56667;SDS011;42542;48.360;10.958;2024-03-08T02:43:21;20.25;;;6.75;;
56667;SDS011;42542;48.360;10.958;2024-03-08T02:46:24;17.13;;;6.23;;
56667;SDS011;42542;48.360;10.958;2024-03-08T02:49:26;18.58;;;6.45;;
56667;SDS011;42542;48.360;10.958;2024-03-08T02:52:29;17.50;;;6.35;;
56667;SDS011;42542;48.360;10.958;2024-03-08T02:55:30;18.63;;;6.17;;
56667;SDS011;42542;48.360;10.958;2024-03-08T02:58:33;21.65;;;6.90;;
56667;SDS011;42542;48.360;10.958;2024-03-08T03:01:35;22.00;;;6.45;;
56667;SDS011;42542;48.360;10.958;2024-03-08T03:04:41;20.30;;;6.75;;
56667;SDS011;42542;48.360;10.958;2024-03-08T03:07:43;20.00;;;6.75;;
56667;SDS011;42542;48.360;10.958;2024-03-08T03:10:45;19.90;;;6.68;;
56667;SDS011;42542;48.360;10.958;2024-03-08T03:13:47;18.58;;;7.05;;
56667;SDS011;42542;48.360;10.958;2024-03-08T03:16:50;21.00;;;6.33;;
56667;SDS011;42542;48.360;10.958;2024-03-08T03:19:53;22.05;;;7.35;;
56667;SDS011;42542;48.360;10.958;2024-03-08T03:22:55;18.65;;;6.82;;
56667;SDS011;42542;48.360;10.958;2024-03-08T03:25:58;18.80;;;6.17;;
56667;SDS011;42542;48.360;10.958;2024-03-08T03:29:01;22.50;;;6.47;;
56667;SDS011;42542;48.360;10.958;2024-03-08T03:32:04;18.13;;;6.20;;
56667;SDS011;42542;48.360;10.958;2024-03-08T03:35:07;20.73;;;7.25;;
56667;SDS011;42542;48.360;10.958;2024-03-08T03:38:09;19.80;;;6.97;;
56667;SDS011;42542;48.360;10.958;2024-03-08T03:41:12;20.77;;;6.88;;
56667;SDS011;42542;48.360;10.958;2024-03-08T03:44:15;21.42;;;7.45;;
56667;SDS011;42542;48.360;10.958;2024-03-08T03:47:18;18.80;;;6.90;;
56667;SDS011;42542;48.360;10.958;2024-03-08T03:50:19;18.00;;;7.05;;
56667;SDS011;42542;48.360;10.958;2024-03-08T03:53:22;21.13;;;7.50;;
56667;SDS011;42542;48.360;10.958;2024-03-08T03:56:27;18.83;;;6.70;;
56667;SDS011;42542;48.360;10.958;2024-03-08T03:59:29;23.40;;;7.85;;
56667;SDS011;42542;48.360;10.958;2024-03-08T04:02:32;21.88;;;7.22;;
56667;SDS011;42542;48.360;10.958;2024-03-08T04:05:36;21.75;;;7.63;;
56667;SDS011;42542;48.360;10.958;2024-03-08T04:08:38;21.67;;;6.88;;
56667;SDS011;42542;48.360;10.958;2024-03-08T04:11:40;19.50;;;7.03;;
56667;SDS011;42542;48.360;10.958;2024-03-08T04:14:42;20.35;;;6.55;;
56667;SDS011;42542;48.360;10.958;2024-03-08T04:17:44;19.43;;;6.93;;
56667;SDS011;42542;48.360;10.958;2024-03-08T04:20:47;21.85;;;7.22;;
56667;SDS011;42542;48.360;10.958;2024-03-08T04:23:50;22.27;;;8.00;;
56667;SDS011;42542;48.360;10.958;2024-03-08T04:26:51;20.63;;;7.73;;
56667;SDS011;42542;48.360;10.958;2024-03-08T04:29:54;19.92;;;7.28;;
56667;SDS011;42542;48.360;10.958;2024-03-08T04:32:56;20.95;;;7.70;;
56667;SDS011;42542;48.360;10.958;2024-03-08T04:35:59;18.67;;;7.55;;
56667;SDS011;42542;48.360;10.958;2024-03-08T04:39:01;21.40;;;7.32;;
56667;SDS011;42542;48.360;10.958;2024-03-08T04:42:02;23.92;;;7.35;;
56667;SDS011;42542;48.360;10.958;2024-03-08T04:45:08;22.35;;;7.40;;
56667;SDS011;42542;48.360;10.958;2024-03-08T04:48:14;21.43;;;7.30;;
56667;SDS011;42542;48.360;10.958;2024-03-08T04:51:16;20.80;;;7.57;;
56667;SDS011;42542;48.360;10.958;2024-03-08T04:54:18;21.15;;;7.43;;
56667;SDS011;42542;48.360;10.958;2024-03-08T04:57:20;21.03;;;6.93;;
56667;SDS011;42542;48.360;10.958;2024-03-08T05:00:22;20.70;;;6.93;;
56667;SDS011;42542;48.360;10.958;2024-03-08T05:03:23;19.45;;;7.20;;
56667;SDS011;42542;48.360;10.958;2024-03-08T05:06:28;24.10;;;7.90;;
56667;SDS011;42542;48.360;10.958;2024-03-08T05:09:31;20.33;;;7.63;;
56667;SDS011;42542;48.360;10.958;2024-03-08T05:12:33;21.33;;;7.57;;
56667;SDS011;42542;48.360;10.958;2024-03-08T05:15:35;22.70;;;7.25;;
56667;SDS011;42542;48.360;10.958;2024-03-08T05:18:38;22.43;;;7.83;;
56667;SDS011;42542;48.360;10.958;2024-03-08T05:21:40;20.50;;;7.43;;
56667;SDS011;42542;48.360;10.958;2024-03-08T05:24:42;22.08;;;7.30;;
56667;SDS011;42542;48.360;10.958;2024-03-08T05:27:44;22.93;;;7.13;;
56667;SDS011;42542;48.360;10.958;2024-03-08T05:30:46;22.50;;;7.55;;
56667;SDS011;42542;48.360;10.958;2024-03-08T05:33:48;22.98;;;7.72;;
56667;SDS011;42542;48.360;10.958;2024-03-08T05:36:50;20.50;;;7.07;;
56667;SDS011;42542;48.360;10.958;2024-03-08T05:39:52;19.48;;;7.38;;
56667;SDS011;42542;48.360;10.958;2024-03-08T05:42:55;22.08;;;7.30;;
56667;SDS011;42542;48.360;10.958;2024-03-08T05:45:57;22.92;;;8.48;;
56667;SDS011;42542;48.360;10.958;2024-03-08T05:48:59;21.10;;;8.13;;
56667;SDS011;42542;48.360;10.958;2024-03-08T05:52:01;22.05;;;8.10;;
56667;SDS011;42542;48.360;10.958;2024-03-08T05:55:04;23.13;;;7.63;;
56667;SDS011;42542;48.360;10.958;2024-03-08T05:58:10;21.13;;;7.73;;
56667;SDS011;42542;48.360;10.958;2024-03-08T06:01:13;26.20;;;8.48;;
56667;SDS011;42542;48.360;10.958;2024-03-08T06:04:17;26.15;;;8.82;;
56667;SDS011;42542;48.360;10.958;2024-03-08T06:07:19;26.65;;;8.30;;
56667;SDS011;42542;48.360;10.958;2024-03-08T06:10:21;24.48;;;8.85;;
56667;SDS011;42542;48.360;10.958;2024-03-08T06:13:23;23.88;;;8.32;;
56667;SDS011;42542;48.360;10.958;2024-03-08T06:16:30;23.15;;;8.38;;
56667;SDS011;42542;48.360;10.958;2024-03-08T06:19:31;26.67;;;8.80;;
56667;SDS011;42542;48.360;10.958;2024-03-08T06:22:36;23.40;;;7.95;;
56667;SDS011;42542;48.360;10.958;2024-03-08T06:25:39;23.90;;;8.52;;
56667;SDS011;42542;48.360;10.958;2024-03-08T06:28:41;28.27;;;9.23;;
56667;SDS011;42542;48.360;10.958;2024-03-08T06:31:43;24.50;;;8.15;;
56667;SDS011;42542;48.360;10.958;2024-03-08T06:34:45;22.95;;;7.97;;
56667;SDS011;42542;48.360;10.958;2024-03-08T06:37:46;24.85;;;8.30;;
56667;SDS011;42542;48.360;10.958;2024-03-08T06:40:48;26.75;;;9.43;;
56667;SDS011;42542;48.360;10.958;2024-03-08T06:43:50;26.63;;;8.18;;
56667;SDS011;42542;48.360;10.958;2024-03-08T06:46:59;25.10;;;8.50;;
56667;SDS011;42542;48.360;10.958;2024-03-08T06:50:01;25.70;;;9.57;;
56667;SDS011;42542;48.360;10.958;2024-03-08T06:53:04;26.05;;;8.65;;
56667;SDS011;42542;48.360;10.958;2024-03-08T06:56:05;31.38;;;8.73;;
56667;SDS011;42542;48.360;10.958;2024-03-08T06:59:10;27.00;;;8.73;;
56667;SDS011;42542;48.360;10.958;2024-03-08T07:02:14;21.42;;;8.23;;
56667;SDS011;42542;48.360;10.958;2024-03-08T07:05:16;28.52;;;9.23;;
56667;SDS011;42542;48.360;10.958;2024-03-08T07:08:18;25.55;;;8.45;;
56667;SDS011;42542;48.360;10.958;2024-03-08T07:11:20;26.00;;;8.85;;
56667;SDS011;42542;48.360;10.958;2024-03-08T07:14:23;27.17;;;8.98;;
56667;SDS011;42542;48.360;10.958;2024-03-08T07:17:26;27.23;;;9.57;;
56667;SDS011;42542;48.360;10.958;2024-03-08T07:20:27;22.40;;;8.77;;
56667;SDS011;42542;48.360;10.958;2024-03-08T07:23:31;27.60;;;9.57;;
56667;SDS011;42542;48.360;10.958;2024-03-08T07:26:48;23.88;;;8.80;;
56667;SDS011;42542;48.360;10.958;2024-03-08T07:29:51;27.73;;;8.80;;
56667;SDS011;42542;48.360;10.958;2024-03-08T07:33:09;25.63;;;9.32;;
56667;SDS011;42542;48.360;10.958;2024-03-08T07:36:16;25.98;;;8.15;;
56667;SDS011;42542;48.360;10.958;2024-03-08T07:39:18;24.65;;;9.20;;
56667;SDS011;42542;48.360;10.958;2024-03-08T07:42:21;24.52;;;8.77;;
56667;SDS011;42542;48.360;10.958;2024-03-08T07:45:24;23.38;;;8.65;;
56667;SDS011;42542;48.360;10.958;2024-03-08T07:48:27;27.92;;;9.27;;
56667;SDS011;42542;48.360;10.958;2024-03-08T07:51:29;26.70;;;9.13;;
56667;SDS011;42542;48.360;10.958;2024-03-08T07:54:32;24.83;;;9.05;;
56667;SDS011;42542;48.360;10.958;2024-03-08T07:57:35;29.40;;;8.93;;
56667;SDS011;42542;48.360;10.958;2024-03-08T08:00:39;26.87;;;9.10;;
56667;SDS011;42542;48.360;10.958;2024-03-08T08:03:44;22.00;;;8.07;;
56667;SDS011;42542;48.360;10.958;2024-03-08T08:06:47;24.67;;;8.38;;
56667;SDS011;42542;48.360;10.958;2024-03-08T08:09:48;22.52;;;8.32;;
56667;SDS011;42542;48.360;10.958;2024-03-08T08:12:52;23.52;;;8.40;;
56667;SDS011;42542;48.360;10.958;2024-03-08T08:15:53;28.48;;;10.07;;
56667;SDS011;42542;48.360;10.958;2024-03-08T08:18:56;28.63;;;8.57;;
56667;SDS011;42542;48.360;10.958;2024-03-08T08:21:58;24.77;;;9.43;;
56667;SDS011;42542;48.360;10.958;2024-03-08T08:25:00;29.13;;;10.00;;
56667;SDS011;42542;48.360;10.958;2024-03-08T08:28:03;30.92;;;10.15;;
56667;SDS011;42542;48.360;10.958;2024-03-08T08:31:05;28.33;;;10.00;;
56667;SDS011;42542;48.360;10.958;2024-03-08T08:34:09;30.90;;;9.65;;
56667;SDS011;42542;48.360;10.958;2024-03-08T08:37:11;31.63;;;10.80;;
56667;SDS011;42542;48.360;10.958;2024-03-08T08:40:13;27.35;;;9.23;;
56667;SDS011;42542;48.360;10.958;2024-03-08T08:43:19;27.90;;;10.20;;
56667;SDS011;42542;48.360;10.958;2024-03-08T08:46:25;29.52;;;10.15;;
56667;SDS011;42542;48.360;10.958;2024-03-08T08:49:27;28.55;;;10.57;;
56667;SDS011;42542;48.360;10.958;2024-03-08T08:52:33;26.07;;;8.63;;
56667;SDS011;42542;48.360;10.958;2024-03-08T08:55:39;27.77;;;9.60;;
56667;SDS011;42542;48.360;10.958;2024-03-08T08:58:43;25.48;;;9.18;;
56667;SDS011;42542;48.360;10.958;2024-03-08T09:01:45;27.30;;;8.43;;
56667;SDS011;42542;48.360;10.958;2024-03-08T09:04:52;29.55;;;9.40;;
56667;SDS011;42542;48.360;10.958;2024-03-08T09:07:54;27.05;;;9.30;;
56667;SDS011;42542;48.360;10.958;2024-03-08T09:10:57;33.80;;;10.55;;
56667;SDS011;42542;48.360;10.958;2024-03-08T09:14:01;30.45;;;9.60;;
56667;SDS011;42542;48.360;10.958;2024-03-08T09:17:03;28.52;;;9.35;;
56667;SDS011;42542;48.360;10.958;2024-03-08T09:20:06;31.17;;;10.15;;
56667;SDS011;42542;48.360;10.958;2024-03-08T09:23:11;28.90;;;10.73;;
56667;SDS011;42542;48.360;10.958;2024-03-08T09:26:12;28.27;;;9.75;;
56667;SDS011;42542;48.360;10.958;2024-03-08T09:29:26;29.67;;;10.85;;
56667;SDS011;42542;48.360;10.958;2024-03-08T09:32:28;30.00;;;10.30;;
56667;SDS011;42542;48.360;10.958;2024-03-08T09:35:30;29.92;;;11.07;;
56667;SDS011;42542;48.360;10.958;2024-03-08T09:38:32;30.10;;;10.55;;
56667;SDS011;42542;48.360;10.958;2024-03-08T09:41:36;36.05;;;11.25;;
56667;SDS011;42542;48.360;10.958;2024-03-08T09:44:37;31.50;;;10.60;;
56667;SDS011;42542;48.360;10.958;2024-03-08T09:47:44;31.17;;;10.80;;
56667;SDS011;42542;48.360;10.958;2024-03-08T09:50:46;31.23;;;10.60;;
56667;SDS011;42542;48.360;10.958;2024-03-08T09:53:50;25.87;;;9.57;;
56667;SDS011;42542;48.360;10.958;2024-03-08T09:56:52;29.23;;;10.48;;
56667;SDS011;42542;48.360;10.958;2024-03-08T09:59:54;30.27;;;10.45;;
56667;SDS011;42542;48.360;10.958;2024-03-08T10:03:01;30.97;;;11.50;;
56667;SDS011;42542;48.360;10.958;2024-03-08T10:06:03;34.63;;;11.38;;
56667;SDS011;42542;48.360;10.958;2024-03-08T10:09:07;28.95;;;10.48;;
56667;SDS011;42542;48.360;10.958;2024-03-08T10:12:09;28.70;;;10.70;;
56667;SDS011;42542;48.360;10.958;2024-03-08T10:15:11;25.85;;;9.77;;
56667;SDS011;42542;48.360;10.958;2024-03-08T10:18:13;28.05;;;10.30;;
56667;SDS011;42542;48.360;10.958;2024-03-08T10:21:15;30.48;;;10.70;;
56667;SDS011;42542;48.360;10.958;2024-03-08T10:24:18;30.37;;;10.13;;
56667;SDS011;42542;48.360;10.958;2024-03-08T10:27:20;26.25;;;9.65;;
56667;SDS011;42542;48.360;10.958;2024-03-08T10:30:23;32.85;;;10.75;;
56667;SDS011;42542;48.360;10.958;2024-03-08T10:33:24;29.83;;;10.37;;
56667;SDS011;42542;48.360;10.958;2024-03-08T10:36:27;31.60;;;10.35;;
56667;SDS011;42542;48.360;10.958;2024-03-08T10:39:36;32.88;;;11.15;;
56667;SDS011;42542;48.360;10.958;2024-03-08T10:42:40;31.80;;;10.60;;
56667;SDS011;42542;48.360;10.958;2024-03-08T10:45:53;31.33;;;10.75;;
56667;SDS011;42542;48.360;10.958;2024-03-08T10:49:03;32.38;;;10.98;;
56667;SDS011;42542;48.360;10.958;2024-03-08T10:52:13;30.58;;;10.13;;
56667;SDS011;42542;48.360;10.958;2024-03-08T10:55:19;27.40;;;9.90;;
56667;SDS011;42542;48.360;10.958;2024-03-08T10:58:24;31.15;;;10.70;;
56667;SDS011;42542;48.360;10.958;2024-03-08T11:01:29;31.08;;;10.43;;
56667;SDS011;42542;48.360;10.958;2024-03-08T11:04:31;28.27;;;9.87;;
56667;SDS011;42542;48.360;10.958;2024-03-08T11:07:34;27.55;;;9.77;;
56667;SDS011;42542;48.360;10.958;2024-03-08T11:10:46;25.95;;;9.88;;
56667;SDS011;42542;48.360;10.958;2024-03-08T11:13:48;25.50;;;9.63;;
56667;SDS011;42542;48.360;10.958;2024-03-08T11:16:51;28.58;;;10.27;;
56667;SDS011;42542;48.360;10.958;2024-03-08T11:19:54;29.27;;;11.35;;
56667;SDS011;42542;48.360;10.958;2024-03-08T11:23:01;23.77;;;9.43;;
56667;SDS011;42542;48.360;10.958;2024-03-08T11:26:20;26.97;;;10.00;;
56667;SDS011;42542;48.360;10.958;2024-03-08T11:32:31;31.15;;;10.18;;
56667;SDS011;42542;48.360;10.958;2024-03-08T11:35:34;26.30;;;9.63;;
56667;SDS011;42542;48.360;10.958;2024-03-08T11:38:39;27.60;;;9.50;;
56667;SDS011;42542;48.360;10.958;2024-03-08T11:41:43;30.60;;;10.18;;
56667;SDS011;42542;48.360;10.958;2024-03-08T11:44:46;27.17;;;10.00;;
56667;SDS011;42542;48.360;10.958;2024-03-08T11:47:49;27.58;;;8.95;;
56667;SDS011;42542;48.360;10.958;2024-03-08T11:51:00;27.60;;;9.93;;
56667;SDS011;42542;48.360;10.958;2024-03-08T11:54:03;26.00;;;9.75;;
56667;SDS011;42542;48.360;10.958;2024-03-08T11:57:05;29.27;;;9.13;;
56667;SDS011;42542;48.360;10.958;2024-03-08T12:00:11;24.67;;;9.18;;
56667;SDS011;42542;48.360;10.958;2024-03-08T12:03:23;27.08;;;10.18;;
56667;SDS011;42542;48.360;10.958;2024-03-08T12:06:27;23.90;;;8.67;;
56667;SDS011;42542;48.360;10.958;2024-03-08T12:09:41;25.65;;;9.05;;
56667;SDS011;42542;48.360;10.958;2024-03-08T12:12:48;23.45;;;9.13;;
56667;SDS011;42542;48.360;10.958;2024-03-08T12:15:53;24.05;;;8.32;;
56667;SDS011;42542;48.360;10.958;2024-03-08T12:18:55;24.70;;;9.30;;
56667;SDS011;42542;48.360;10.958;2024-03-08T12:21:57;28.30;;;9.60;;
56667;SDS011;42542;48.360;10.958;2024-03-08T12:25:11;23.40;;;8.35;;
56667;SDS011;42542;48.360;10.958;2024-03-08T12:28:13;21.10;;;8.30;;
56667;SDS011;42542;48.360;10.958;2024-03-08T12:31:17;21.75;;;8.30;;
56667;SDS011;42542;48.360;10.958;2024-03-08T12:34:22;23.50;;;8.35;;
56667;SDS011;42542;48.360;10.958;2024-03-08T12:37:25;21.30;;;7.83;;
56667;SDS011;42542;48.360;10.958;2024-03-08T12:40:27;21.45;;;8.18;;
56667;SDS011;42542;48.360;10.958;2024-03-08T12:43:31;22.20;;;7.80;;
56667;SDS011;42542;48.360;10.958;2024-03-08T12:46:34;22.23;;;8.63;;
56667;SDS011;42542;48.360;10.958;2024-03-08T12:49:36;23.30;;;7.80;;
56667;SDS011;42542;48.360;10.958;2024-03-08T12:52:38;19.63;;;7.25;;
56667;SDS011;42542;48.360;10.958;2024-03-08T12:55:40;19.98;;;7.75;;
56667;SDS011;42542;48.360;10.958;2024-03-08T12:58:42;20.00;;;7.87;;
56667;SDS011;42542;48.360;10.958;2024-03-08T13:01:44;20.70;;;7.97;;
56667;SDS011;42542;48.360;10.958;2024-03-08T13:04:49;21.45;;;8.07;;
56667;SDS011;42542;48.360;10.958;2024-03-08T13:07:59;20.30;;;7.43;;
56667;SDS011;42542;48.360;10.958;2024-03-08T13:11:00;17.85;;;6.85;;
56667;SDS011;42542;48.360;10.958;2024-03-08T13:14:04;21.98;;;7.80;;
56667;SDS011;42542;48.360;10.958;2024-03-08T13:17:09;17.88;;;7.40;;
56667;SDS011;42542;48.360;10.958;2024-03-08T13:20:14;20.20;;;7.72;;
56667;SDS011;42542;48.360;10.958;2024-03-08T13:23:31;22.17;;;7.50;;
56667;SDS011;42542;48.360;10.958;2024-03-08T13:26:41;18.25;;;6.70;;
56667;SDS011;42542;48.360;10.958;2024-03-08T13:29:47;17.87;;;6.77;;
56667;SDS011;42542;48.360;10.958;2024-03-08T13:32:54;17.27;;;6.82;;
56667;SDS011;42542;48.360;10.958;2024-03-08T13:35:56;22.35;;;7.55;;
56667;SDS011;42542;48.360;10.958;2024-03-08T13:39:06;20.50;;;7.03;;
56667;SDS011;42542;48.360;10.958;2024-03-08T13:42:17;22.08;;;7.60;;
56667;SDS011;42542;48.360;10.958;2024-03-08T13:45:18;20.60;;;7.35;;
56667;SDS011;42542;48.360;10.958;2024-03-08T13:48:26;18.65;;;7.40;;
56667;SDS011;42542;48.360;10.958;2024-03-08T13:51:28;19.27;;;6.28;;
56667;SDS011;42542;48.360;10.958;2024-03-08T13:54:32;19.00;;;7.18;;
56667;SDS011;42542;48.360;10.958;2024-03-08T13:57:34;18.77;;;6.53;;
56667;SDS011;42542;48.360;10.958;2024-03-08T14:00:36;18.63;;;6.43;;
56667;SDS011;42542;48.360;10.958;2024-03-08T14:03:38;15.82;;;5.75;;
56667;SDS011;42542;48.360;10.958;2024-03-08T14:06:43;15.75;;;6.45;;
56667;SDS011;42542;48.360;10.958;2024-03-08T14:09:48;17.47;;;6.97;;
56667;SDS011;42542;48.360;10.958;2024-03-08T14:12:54;16.70;;;6.57;;
56667;SDS011;42542;48.360;10.958;2024-03-08T14:16:00;20.05;;;7.28;;
56667;SDS011;42542;48.360;10.958;2024-03-08T14:19:01;16.63;;;7.18;;
56667;SDS011;42542;48.360;10.958;2024-03-08T14:22:07;19.35;;;7.13;;
56667;SDS011;42542;48.360;10.958;2024-03-08T14:25:12;18.98;;;7.00;;
56667;SDS011;42542;48.360;10.958;2024-03-08T14:28:20;17.50;;;6.93;;
56667;SDS011;42542;48.360;10.958;2024-03-08T14:31:24;16.50;;;6.70;;
56667;SDS011;42542;48.360;10.958;2024-03-08T14:34:27;19.60;;;7.50;;
56667;SDS011;42542;48.360;10.958;2024-03-08T14:37:31;18.45;;;7.05;;
56667;SDS011;42542;48.360;10.958;2024-03-08T14:40:33;17.73;;;6.90;;
56667;SDS011;42542;48.360;10.958;2024-03-08T14:43:35;18.30;;;6.55;;
56667;SDS011;42542;48.360;10.958;2024-03-08T14:46:38;16.48;;;6.32;;
56667;SDS011;42542;48.360;10.958;2024-03-08T14:49:41;17.38;;;6.47;;
56667;SDS011;42542;48.360;10.958;2024-03-08T14:52:44;18.30;;;5.95;;
56667;SDS011;42542;48.360;10.958;2024-03-08T14:55:47;15.77;;;6.50;;
56667;SDS011;42542;48.360;10.958;2024-03-08T14:58:49;16.70;;;6.32;;
56667;SDS011;42542;48.360;10.958;2024-03-08T15:01:52;15.30;;;6.60;;
56667;SDS011;42542;48.360;10.958;2024-03-08T15:04:54;14.23;;;6.03;;
56667;SDS011;42542;48.360;10.958;2024-03-08T15:07:59;17.25;;;6.38;;
56667;SDS011;42542;48.360;10.958;2024-03-08T15:11:13;16.17;;;6.70;;
56667;SDS011;42542;48.360;10.958;2024-03-08T15:14:23;17.10;;;6.57;;
56667;SDS011;42542;48.360;10.958;2024-03-08T15:17:26;16.67;;;6.03;;
56667;SDS011;42542;48.360;10.958;2024-03-08T15:20:28;15.05;;;6.22;;
56667;SDS011;42542;48.360;10.958;2024-03-08T15:23:35;15.98;;;6.50;;
56667;SDS011;42542;48.360;10.958;2024-03-08T15:26:37;14.40;;;6.00;;
56667;SDS011;42542;48.360;10.958;2024-03-08T15:29:40;16.58;;;6.05;;
56667;SDS011;42542;48.360;10.958;2024-03-08T15:32:48;15.70;;;6.03;;
56667;SDS011;42542;48.360;10.958;2024-03-08T15:35:52;14.52;;;6.18;;
56667;SDS011;42542;48.360;10.958;2024-03-08T15:39:01;16.63;;;6.55;;
56667;SDS011;42542;48.360;10.958;2024-03-08T15:42:04;15.20;;;6.23;;
56667;SDS011;42542;48.360;10.958;2024-03-08T15:45:08;14.93;;;6.45;;
56667;SDS011;42542;48.360;10.958;2024-03-08T15:48:10;14.18;;;6.05;;
56667;SDS011;42542;48.360;10.958;2024-03-08T15:51:12;15.00;;;6.35;;
56667;SDS011;42542;48.360;10.958;2024-03-08T15:54:16;14.00;;;5.63;;
56667;SDS011;42542;48.360;10.958;2024-03-08T15:57:17;15.57;;;6.00;;
56667;SDS011;42542;48.360;10.958;2024-03-08T16:00:22;14.63;;;6.03;;
56667;SDS011;42542;48.360;10.958;2024-03-08T16:03:43;14.97;;;6.10;;
56667;SDS011;42542;48.360;10.958;2024-03-08T16:06:51;15.68;;;6.07;;
56667;SDS011;42542;48.360;10.958;2024-03-08T16:09:52;14.80;;;6.07;;
56667;SDS011;42542;48.360;10.958;2024-03-08T16:12:57;14.07;;;6.03;;
56667;SDS011;42542;48.360;10.958;2024-03-08T16:16:01;14.35;;;5.95;;
56667;SDS011;42542;48.360;10.958;2024-03-08T16:19:04;14.57;;;5.68;;
56667;SDS011;42542;48.360;10.958;2024-03-08T16:22:09;14.52;;;5.78;;
56667;SDS011;42542;48.360;10.958;2024-03-08T16:25:11;16.40;;;5.75;;
56667;SDS011;42542;48.360;10.958;2024-03-08T16:28:15;15.75;;;6.50;;
56667;SDS011;42542;48.360;10.958;2024-03-08T16:31:18;16.77;;;5.65;;
56667;SDS011;42542;48.360;10.958;2024-03-08T16:34:20;14.33;;;5.40;;
56667;SDS011;42542;48.360;10.958;2024-03-08T16:37:22;13.30;;;5.72;;
56667;SDS011;42542;48.360;10.958;2024-03-08T16:40:27;15.93;;;6.00;;
56667;SDS011;42542;48.360;10.958;2024-03-08T16:43:29;17.67;;;6.67;;
56667;SDS011;42542;48.360;10.958;2024-03-08T16:46:31;19.23;;;7.10;;
56667;SDS011;42542;48.360;10.958;2024-03-08T16:49:43;19.75;;;7.00;;
56667;SDS011;42542;48.360;10.958;2024-03-08T16:52:45;22.33;;;7.75;;
56667;SDS011;42542;48.360;10.958;2024-03-08T16:55:47;16.00;;;6.15;;
56667;SDS011;42542;48.360;10.958;2024-03-08T16:58:49;18.70;;;7.07;;
56667;SDS011;42542;48.360;10.958;2024-03-08T17:01:54;15.88;;;6.07;;
56667;SDS011;42542;48.360;10.958;2024-03-08T17:04:56;15.70;;;6.40;;
56667;SDS011;42542;48.360;10.958;2024-03-08T17:07:58;17.27;;;6.60;;
56667;SDS011;42542;48.360;10.958;2024-03-08T17:11:03;15.93;;;5.97;;
56667;SDS011;42542;48.360;10.958;2024-03-08T17:14:05;17.57;;;6.40;;
56667;SDS011;42542;48.360;10.958;2024-03-08T17:17:06;16.60;;;6.00;;
56667;SDS011;42542;48.360;10.958;2024-03-08T17:20:09;16.23;;;6.28;;
56667;SDS011;42542;48.360;10.958;2024-03-08T17:23:21;14.82;;;5.93;;
56667;SDS011;42542;48.360;10.958;2024-03-08T17:26:23;16.65;;;6.43;;
56667;SDS011;42542;48.360;10.958;2024-03-08T17:29:26;16.13;;;6.40;;
56667;SDS011;42542;48.360;10.958;2024-03-08T17:32:28;16.55;;;6.32;;
56667;SDS011;42542;48.360;10.958;2024-03-08T17:35:35;15.97;;;5.80;;
56667;SDS011;42542;48.360;10.958;2024-03-08T17:38:39;16.88;;;6.50;;
56667;SDS011;42542;48.360;10.958;2024-03-08T17:41:49;18.27;;;6.25;;
56667;SDS011;42542;48.360;10.958;2024-03-08T17:44:51;21.10;;;7.47;;
56667;SDS011;42542;48.360;10.958;2024-03-08T17:47:54;19.40;;;7.38;;
56667;SDS011;42542;48.360;10.958;2024-03-08T17:50:56;19.27;;;7.00;;
56667;SDS011;42542;48.360;10.958;2024-03-08T17:53:57;18.95;;;6.97;;
56667;SDS011;42542;48.360;10.958;2024-03-08T17:57:00;17.95;;;7.13;;